sensor_id;sensor_type;location;lat;lon;timestamp;temperature;humidity
17813;DHT22;9030;50.792;8.320;2023-09-30T00:01:22;13.10;99.90
17813;DHT22;9030;50.792;8.320;2023-09-30T00:03:49;13.00;99.90
17813;DHT22;9030;50.792;8.320;2023-09-30T00:06:15;13.00;99.90
17813;DHT22;9030;50.792;8.320;2023-09-30T00:08:42;12.80;99.90
17813;DHT22;9030;50.792;8.320;2023-09-30T00:11:10;12.80;99.90
17813;DHT22;9030;50.792;8.320;2023-09-30T00:13:37;12.70;99.90
17813;DHT22;9030;50.792;8.320;2023-09-30T00:16:04;12.70;99.90
17813;DHT22;9030;50.792;8.320;2023-09-30T00:18:31;12.60;99.90
17813;DHT22;9030;50.792;8.320;2023-09-30T00:20:57;12.60;99.90
17813;DHT22;9030;50.792;8.320;2023-09-30T00:23:24;12.50;99.90
17813;DHT22;9030;50.792;8.320;2023-09-30T00:25:51;12.50;99.90
17813;DHT22;9030;50.792;8.320;2023-09-30T00:28:19;12.50;99.90
17813;DHT22;9030;50.792;8.320;2023-09-30T00:30:45;12.40;99.90
17813;DHT22;9030;50.792;8.320;2023-09-30T00:33:12;12.40;99.90
17813;DHT22;9030;50.792;8.320;2023-09-30T00:35:39;12.40;99.90
17813;DHT22;9030;50.792;8.320;2023-09-30T00:38:06;12.50;99.90
17813;DHT22;9030;50.792;8.320;2023-09-30T00:40:33;12.50;99.90
17813;DHT22;9030;50.792;8.320;2023-09-30T00:43:01;12.50;99.90
17813;DHT22;9030;50.792;8.320;2023-09-30T00:45:30;12.40;99.90
17813;DHT22;9030;50.792;8.320;2023-09-30T00:47:57;12.30;99.90
17813;DHT22;9030;50.792;8.320;2023-09-30T00:50:23;12.20;99.90
17813;DHT22;9030;50.792;8.320;2023-09-30T00:52:52;12.00;99.90
17813;DHT22;9030;50.792;8.320;2023-09-30T00:55:19;11.90;99.90
17813;DHT22;9030;50.792;8.320;2023-09-30T00:57:46;11.80;99.90
17813;DHT22;9030;50.792;8.320;2023-09-30T01:00:14;11.70;99.90
17813;DHT22;9030;50.792;8.320;2023-09-30T01:02:42;11.60;99.90
17813;DHT22;9030;50.792;8.320;2023-09-30T01:05:09;11.60;99.90
17813;DHT22;9030;50.792;8.320;2023-09-30T01:07:36;11.50;99.90
17813;DHT22;9030;50.792;8.320;2023-09-30T01:10:03;11.40;99.90
17813;DHT22;9030;50.792;8.320;2023-09-30T01:12:30;11.40;99.90
17813;DHT22;9030;50.792;8.320;2023-09-30T01:14:57;11.30;99.90
17813;DHT22;9030;50.792;8.320;2023-09-30T01:17:25;11.30;99.90
17813;DHT22;9030;50.792;8.320;2023-09-30T01:19:57;11.30;99.90
17813;DHT22;9030;50.792;8.320;2023-09-30T01:22:26;11.20;99.90
17813;DHT22;9030;50.792;8.320;2023-09-30T01:24:55;11.10;99.90
17813;DHT22;9030;50.792;8.320;2023-09-30T01:27:22;11.10;99.90
17813;DHT22;9030;50.792;8.320;2023-09-30T01:29:48;11.00;99.90
17813;DHT22;9030;50.792;8.320;2023-09-30T01:32:15;10.90;99.90
17813;DHT22;9030;50.792;8.320;2023-09-30T01:34:42;11.00;99.90
17813;DHT22;9030;50.792;8.320;2023-09-30T01:37:09;11.00;99.90
17813;DHT22;9030;50.792;8.320;2023-09-30T01:39:37;10.90;99.90
17813;DHT22;9030;50.792;8.320;2023-09-30T01:42:04;10.90;99.90
17813;DHT22;9030;50.792;8.320;2023-09-30T01:44:31;10.90;99.90
17813;DHT22;9030;50.792;8.320;2023-09-30T01:46:58;10.90;99.90
17813;DHT22;9030;50.792;8.320;2023-09-30T01:49:24;10.80;99.90
17813;DHT22;9030;50.792;8.320;2023-09-30T01:51:51;10.80;99.90
17813;DHT22;9030;50.792;8.320;2023-09-30T01:54:18;10.90;99.90
17813;DHT22;9030;50.792;8.320;2023-09-30T01:56:46;10.90;99.90
17813;DHT22;9030;50.792;8.320;2023-09-30T01:59:12;10.80;99.90
17813;DHT22;9030;50.792;8.320;2023-09-30T02:01:39;10.70;99.90
17813;DHT22;9030;50.792;8.320;2023-09-30T02:04:06;10.60;99.90
17813;DHT22;9030;50.792;8.320;2023-09-30T02:06:33;10.60;99.90
17813;DHT22;9030;50.792;8.320;2023-09-30T02:09:00;10.50;99.90
17813;DHT22;9030;50.792;8.320;2023-09-30T02:11:28;10.50;99.90
17813;DHT22;9030;50.792;8.320;2023-09-30T02:13:56;10.50;99.90
17813;DHT22;9030;50.792;8.320;2023-09-30T02:16:23;10.60;99.90
17813;DHT22;9030;50.792;8.320;2023-09-30T02:18:49;10.70;99.90
17813;DHT22;9030;50.792;8.320;2023-09-30T02:21:17;10.60;99.90
17813;DHT22;9030;50.792;8.320;2023-09-30T02:23:44;10.40;99.90
17813;DHT22;9030;50.792;8.320;2023-09-30T02:26:13;10.30;99.90
17813;DHT22;9030;50.792;8.320;2023-09-30T02:28:40;10.20;99.90
17813;DHT22;9030;50.792;8.320;2023-09-30T02:31:08;10.10;99.90
17813;DHT22;9030;50.792;8.320;2023-09-30T02:33:35;10.10;99.90
17813;DHT22;9030;50.792;8.320;2023-09-30T02:36:03;10.10;99.90
17813;DHT22;9030;50.792;8.320;2023-09-30T02:38:31;10.20;99.90
17813;DHT22;9030;50.792;8.320;2023-09-30T02:40:57;10.20;99.90
17813;DHT22;9030;50.792;8.320;2023-09-30T02:43:24;10.20;99.90
17813;DHT22;9030;50.792;8.320;2023-09-30T02:45:51;10.20;99.90
17813;DHT22;9030;50.792;8.320;2023-09-30T02:48:19;10.10;99.90
17813;DHT22;9030;50.792;8.320;2023-09-30T02:50:46;10.00;99.90
17813;DHT22;9030;50.792;8.320;2023-09-30T02:53:12;10.00;99.90
17813;DHT22;9030;50.792;8.320;2023-09-30T02:55:39;10.00;99.90
17813;DHT22;9030;50.792;8.320;2023-09-30T02:58:06;10.00;99.90
17813;DHT22;9030;50.792;8.320;2023-09-30T03:00:33;10.00;99.90
17813;DHT22;9030;50.792;8.320;2023-09-30T03:03:01;9.90;99.90
17813;DHT22;9030;50.792;8.320;2023-09-30T03:05:29;9.80;99.90
17813;DHT22;9030;50.792;8.320;2023-09-30T03:07:59;9.70;99.90
17813;DHT22;9030;50.792;8.320;2023-09-30T03:10:26;9.60;99.90
17813;DHT22;9030;50.792;8.320;2023-09-30T03:12:53;9.50;99.90
17813;DHT22;9030;50.792;8.320;2023-09-30T03:15:19;9.50;99.90
17813;DHT22;9030;50.792;8.320;2023-09-30T03:17:46;9.40;99.90
17813;DHT22;9030;50.792;8.320;2023-09-30T03:20:13;9.30;99.90
17813;DHT22;9030;50.792;8.320;2023-09-30T03:22:45;9.20;99.90
17813;DHT22;9030;50.792;8.320;2023-09-30T03:25:14;9.30;99.90
17813;DHT22;9030;50.792;8.320;2023-09-30T03:27:43;9.30;99.90
17813;DHT22;9030;50.792;8.320;2023-09-30T03:30:11;9.30;99.90
17813;DHT22;9030;50.792;8.320;2023-09-30T03:32:38;9.30;99.90
17813;DHT22;9030;50.792;8.320;2023-09-30T03:35:06;9.30;99.90
17813;DHT22;9030;50.792;8.320;2023-09-30T03:37:33;9.20;99.90
17813;DHT22;9030;50.792;8.320;2023-09-30T03:40:01;9.20;99.90
17813;DHT22;9030;50.792;8.320;2023-09-30T03:42:37;9.10;99.90
17813;DHT22;9030;50.792;8.320;2023-09-30T03:45:05;9.00;99.90
17813;DHT22;9030;50.792;8.320;2023-09-30T03:47:34;9.00;99.90
17813;DHT22;9030;50.792;8.320;2023-09-30T03:50:01;8.90;99.90
17813;DHT22;9030;50.792;8.320;2023-09-30T03:52:29;8.80;99.90
17813;DHT22;9030;50.792;8.320;2023-09-30T03:54:58;8.70;99.90
17813;DHT22;9030;50.792;8.320;2023-09-30T03:57:26;8.70;99.90
17813;DHT22;9030;50.792;8.320;2023-09-30T03:59:53;8.80;99.90
17813;DHT22;9030;50.792;8.320;2023-09-30T04:02:20;8.70;99.90
17813;DHT22;9030;50.792;8.320;2023-09-30T04:04:46;8.70;99.90
17813;DHT22;9030;50.792;8.320;2023-09-30T04:07:15;8.60;99.90
17813;DHT22;9030;50.792;8.320;2023-09-30T04:09:42;8.50;99.90
17813;DHT22;9030;50.792;8.320;2023-09-30T04:12:08;8.30;99.90
17813;DHT22;9030;50.792;8.320;2023-09-30T04:14:36;8.40;99.90
17813;DHT22;9030;50.792;8.320;2023-09-30T04:17:04;8.40;99.90
17813;DHT22;9030;50.792;8.320;2023-09-30T04:19:31;8.40;99.90
17813;DHT22;9030;50.792;8.320;2023-09-30T04:21:58;8.40;99.90
17813;DHT22;9030;50.792;8.320;2023-09-30T04:24:25;8.30;99.90
17813;DHT22;9030;50.792;8.320;2023-09-30T04:26:54;8.30;99.90
17813;DHT22;9030;50.792;8.320;2023-09-30T04:29:23;8.30;99.90
17813;DHT22;9030;50.792;8.320;2023-09-30T04:31:50;8.30;99.90
17813;DHT22;9030;50.792;8.320;2023-09-30T04:34:17;8.20;99.90
17813;DHT22;9030;50.792;8.320;2023-09-30T04:36:44;8.00;99.90
17813;DHT22;9030;50.792;8.320;2023-09-30T04:39:11;7.90;99.90
17813;DHT22;9030;50.792;8.320;2023-09-30T04:41:40;8.00;99.90
17813;DHT22;9030;50.792;8.320;2023-09-30T04:44:07;8.00;99.90
17813;DHT22;9030;50.792;8.320;2023-09-30T04:46:35;8.00;99.90
17813;DHT22;9030;50.792;8.320;2023-09-30T04:49:07;7.80;99.90
17813;DHT22;9030;50.792;8.320;2023-09-30T04:51:34;7.70;99.90
17813;DHT22;9030;50.792;8.320;2023-09-30T04:54:01;7.70;99.90
17813;DHT22;9030;50.792;8.320;2023-09-30T04:56:29;7.80;99.90
17813;DHT22;9030;50.792;8.320;2023-09-30T04:58:55;7.80;99.90
17813;DHT22;9030;50.792;8.320;2023-09-30T05:01:24;7.80;99.90
17813;DHT22;9030;50.792;8.320;2023-09-30T05:03:50;7.80;99.90
17813;DHT22;9030;50.792;8.320;2023-09-30T05:06:18;7.80;99.90
17813;DHT22;9030;50.792;8.320;2023-09-30T05:08:46;7.90;99.90
17813;DHT22;9030;50.792;8.320;2023-09-30T05:11:13;7.90;99.90
17813;DHT22;9030;50.792;8.320;2023-09-30T05:13:40;8.00;99.90
17813;DHT22;9030;50.792;8.320;2023-09-30T05:16:07;8.00;99.90
17813;DHT22;9030;50.792;8.320;2023-09-30T05:18:34;8.00;99.90
17813;DHT22;9030;50.792;8.320;2023-09-30T05:21:00;8.00;99.90
17813;DHT22;9030;50.792;8.320;2023-09-30T05:23:28;8.00;99.90
17813;DHT22;9030;50.792;8.320;2023-09-30T05:25:56;8.20;99.90
17813;DHT22;9030;50.792;8.320;2023-09-30T05:28:22;8.30;99.90
17813;DHT22;9030;50.792;8.320;2023-09-30T05:30:49;8.40;99.90
17813;DHT22;9030;50.792;8.320;2023-09-30T05:33:16;8.50;99.90
17813;DHT22;9030;50.792;8.320;2023-09-30T05:35:42;8.60;99.90
17813;DHT22;9030;50.792;8.320;2023-09-30T05:38:09;8.60;99.90
17813;DHT22;9030;50.792;8.320;2023-09-30T05:40:39;8.70;99.90
17813;DHT22;9030;50.792;8.320;2023-09-30T05:43:07;8.80;99.90
17813;DHT22;9030;50.792;8.320;2023-09-30T05:45:33;8.80;99.90
17813;DHT22;9030;50.792;8.320;2023-09-30T05:48:01;8.90;99.90
17813;DHT22;9030;50.792;8.320;2023-09-30T05:50:31;8.90;99.90
17813;DHT22;9030;50.792;8.320;2023-09-30T05:52:59;9.00;99.90
17813;DHT22;9030;50.792;8.320;2023-09-30T05:55:26;9.20;99.90
17813;DHT22;9030;50.792;8.320;2023-09-30T05:57:54;9.20;99.90
17813;DHT22;9030;50.792;8.320;2023-09-30T06:00:21;9.30;99.90
17813;DHT22;9030;50.792;8.320;2023-09-30T06:02:49;9.40;99.90
17813;DHT22;9030;50.792;8.320;2023-09-30T06:05:17;9.50;99.90
17813;DHT22;9030;50.792;8.320;2023-09-30T06:07:45;9.60;99.90
17813;DHT22;9030;50.792;8.320;2023-09-30T06:10:12;9.60;99.90
17813;DHT22;9030;50.792;8.320;2023-09-30T06:12:44;9.70;99.90
17813;DHT22;9030;50.792;8.320;2023-09-30T06:15:12;9.80;99.90
17813;DHT22;9030;50.792;8.320;2023-09-30T06:17:40;9.80;99.90
17813;DHT22;9030;50.792;8.320;2023-09-30T06:20:07;9.70;99.90
17813;DHT22;9030;50.792;8.320;2023-09-30T06:22:41;9.60;99.90
17813;DHT22;9030;50.792;8.320;2023-09-30T06:25:08;9.60;99.90
17813;DHT22;9030;50.792;8.320;2023-09-30T06:27:35;9.70;99.90
17813;DHT22;9030;50.792;8.320;2023-09-30T06:30:04;9.60;99.90
17813;DHT22;9030;50.792;8.320;2023-09-30T06:32:32;9.70;99.90
17813;DHT22;9030;50.792;8.320;2023-09-30T06:34:59;9.70;99.90
17813;DHT22;9030;50.792;8.320;2023-09-30T06:37:26;9.80;99.90
17813;DHT22;9030;50.792;8.320;2023-09-30T06:39:55;9.80;99.90
17813;DHT22;9030;50.792;8.320;2023-09-30T06:42:21;10.00;99.90
17813;DHT22;9030;50.792;8.320;2023-09-30T06:44:48;10.00;99.90
17813;DHT22;9030;50.792;8.320;2023-09-30T06:47:15;10.10;99.90
17813;DHT22;9030;50.792;8.320;2023-09-30T06:49:43;10.10;99.90
17813;DHT22;9030;50.792;8.320;2023-09-30T06:52:10;10.10;99.90
17813;DHT22;9030;50.792;8.320;2023-09-30T06:54:37;10.20;99.90
17813;DHT22;9030;50.792;8.320;2023-09-30T06:57:03;10.20;99.90
17813;DHT22;9030;50.792;8.320;2023-09-30T06:59:32;10.20;99.90
17813;DHT22;9030;50.792;8.320;2023-09-30T07:01:58;10.10;99.90
17813;DHT22;9030;50.792;8.320;2023-09-30T07:04:25;10.10;99.90
17813;DHT22;9030;50.792;8.320;2023-09-30T07:06:53;10.10;99.90
17813;DHT22;9030;50.792;8.320;2023-09-30T07:09:20;10.20;99.90
17813;DHT22;9030;50.792;8.320;2023-09-30T07:11:47;10.30;99.90
17813;DHT22;9030;50.792;8.320;2023-09-30T07:14:14;10.30;99.90
17813;DHT22;9030;50.792;8.320;2023-09-30T07:16:41;10.30;99.90
17813;DHT22;9030;50.792;8.320;2023-09-30T07:19:08;10.30;99.90
17813;DHT22;9030;50.792;8.320;2023-09-30T07:21:35;10.40;99.90
17813;DHT22;9030;50.792;8.320;2023-09-30T07:24:05;10.40;99.90
17813;DHT22;9030;50.792;8.320;2023-09-30T07:26:31;10.40;99.90
17813;DHT22;9030;50.792;8.320;2023-09-30T07:28:58;10.50;99.90
17813;DHT22;9030;50.792;8.320;2023-09-30T07:31:25;10.60;99.90
17813;DHT22;9030;50.792;8.320;2023-09-30T07:33:51;10.60;99.90
17813;DHT22;9030;50.792;8.320;2023-09-30T07:36:18;10.60;99.90
17813;DHT22;9030;50.792;8.320;2023-09-30T07:38:45;10.50;99.90
17813;DHT22;9030;50.792;8.320;2023-09-30T07:41:13;10.60;99.90
17813;DHT22;9030;50.792;8.320;2023-09-30T07:43:40;10.70;99.90
17813;DHT22;9030;50.792;8.320;2023-09-30T07:46:07;10.80;99.90
17813;DHT22;9030;50.792;8.320;2023-09-30T07:48:34;10.90;99.90
17813;DHT22;9030;50.792;8.320;2023-09-30T07:51:00;11.00;99.90
17813;DHT22;9030;50.792;8.320;2023-09-30T07:53:27;11.10;99.90
17813;DHT22;9030;50.792;8.320;2023-09-30T07:55:54;11.10;99.90
17813;DHT22;9030;50.792;8.320;2023-09-30T07:58:23;11.30;99.90
17813;DHT22;9030;50.792;8.320;2023-09-30T08:00:50;11.20;99.90
17813;DHT22;9030;50.792;8.320;2023-09-30T08:03:17;11.30;99.90
17813;DHT22;9030;50.792;8.320;2023-09-30T08:05:43;11.50;99.90
17813;DHT22;9030;50.792;8.320;2023-09-30T08:08:12;11.70;99.90
17813;DHT22;9030;50.792;8.320;2023-09-30T08:10:39;11.80;99.90
17813;DHT22;9030;50.792;8.320;2023-09-30T08:13:06;11.90;99.90
17813;DHT22;9030;50.792;8.320;2023-09-30T08:15:34;11.90;99.90
17813;DHT22;9030;50.792;8.320;2023-09-30T08:18:02;12.00;99.90
17813;DHT22;9030;50.792;8.320;2023-09-30T08:20:31;12.10;99.90
17813;DHT22;9030;50.792;8.320;2023-09-30T08:22:58;11.90;99.90
17813;DHT22;9030;50.792;8.320;2023-09-30T08:25:24;12.10;99.90
17813;DHT22;9030;50.792;8.320;2023-09-30T08:27:51;12.20;99.90
17813;DHT22;9030;50.792;8.320;2023-09-30T08:30:19;12.20;99.90
17813;DHT22;9030;50.792;8.320;2023-09-30T08:32:48;12.60;99.90
17813;DHT22;9030;50.792;8.320;2023-09-30T08:35:15;12.70;99.90
17813;DHT22;9030;50.792;8.320;2023-09-30T08:37:41;12.90;99.90
17813;DHT22;9030;50.792;8.320;2023-09-30T08:40:08;13.10;99.90
17813;DHT22;9030;50.792;8.320;2023-09-30T08:42:38;13.20;99.90
17813;DHT22;9030;50.792;8.320;2023-09-30T08:45:09;13.30;99.90
17813;DHT22;9030;50.792;8.320;2023-09-30T08:47:37;13.60;99.90
17813;DHT22;9030;50.792;8.320;2023-09-30T08:50:08;14.10;99.90
17813;DHT22;9030;50.792;8.320;2023-09-30T08:52:38;14.60;99.90
17813;DHT22;9030;50.792;8.320;2023-09-30T08:55:06;14.90;99.90
17813;DHT22;9030;50.792;8.320;2023-09-30T08:57:33;15.10;99.90
17813;DHT22;9030;50.792;8.320;2023-09-30T09:00:04;15.30;99.90
17813;DHT22;9030;50.792;8.320;2023-09-30T09:02:33;15.40;99.90
17813;DHT22;9030;50.792;8.320;2023-09-30T09:05:01;15.90;99.90
17813;DHT22;9030;50.792;8.320;2023-09-30T09:07:29;16.00;99.90
17813;DHT22;9030;50.792;8.320;2023-09-30T09:10:04;16.20;99.90
17813;DHT22;9030;50.792;8.320;2023-09-30T09:12:32;16.60;99.90
17813;DHT22;9030;50.792;8.320;2023-09-30T09:14:59;16.90;99.90
17813;DHT22;9030;50.792;8.320;2023-09-30T09:17:39;16.80;99.90
17813;DHT22;9030;50.792;8.320;2023-09-30T09:20:07;17.10;99.90
17813;DHT22;9030;50.792;8.320;2023-09-30T09:22:40;17.30;99.90
17813;DHT22;9030;50.792;8.320;2023-09-30T09:25:07;17.60;99.90
17813;DHT22;9030;50.792;8.320;2023-09-30T09:27:34;17.70;99.90
17813;DHT22;9030;50.792;8.320;2023-09-30T09:30:15;17.50;99.90
17813;DHT22;9030;50.792;8.320;2023-09-30T09:32:52;17.90;99.90
17813;DHT22;9030;50.792;8.320;2023-09-30T09:35:20;18.00;99.90
17813;DHT22;9030;50.792;8.320;2023-09-30T09:37:56;18.10;99.90
17813;DHT22;9030;50.792;8.320;2023-09-30T09:40:24;18.50;99.90
17813;DHT22;9030;50.792;8.320;2023-09-30T09:42:52;18.70;99.90
17813;DHT22;9030;50.792;8.320;2023-09-30T09:45:21;18.90;99.90
17813;DHT22;9030;50.792;8.320;2023-09-30T09:47:49;19.10;99.90
17813;DHT22;9030;50.792;8.320;2023-09-30T09:50:17;19.20;99.90
17813;DHT22;9030;50.792;8.320;2023-09-30T09:52:44;19.50;99.90
17813;DHT22;9030;50.792;8.320;2023-09-30T09:55:16;19.60;99.90
17813;DHT22;9030;50.792;8.320;2023-09-30T09:57:43;19.90;99.90
17813;DHT22;9030;50.792;8.320;2023-09-30T10:00:12;20.00;99.90
17813;DHT22;9030;50.792;8.320;2023-09-30T10:02:40;19.90;99.90
17813;DHT22;9030;50.792;8.320;2023-09-30T10:05:07;20.10;99.90
17813;DHT22;9030;50.792;8.320;2023-09-30T10:07:39;19.60;99.90
17813;DHT22;9030;50.792;8.320;2023-09-30T10:10:16;19.60;99.90
17813;DHT22;9030;50.792;8.320;2023-09-30T10:12:43;20.10;99.90
17813;DHT22;9030;50.792;8.320;2023-09-30T10:15:38;20.50;99.90
17813;DHT22;9030;50.792;8.320;2023-09-30T10:18:07;20.60;99.90
17813;DHT22;9030;50.792;8.320;2023-09-30T10:20:36;20.30;99.90
17813;DHT22;9030;50.792;8.320;2023-09-30T10:23:21;20.30;99.90
17813;DHT22;9030;50.792;8.320;2023-09-30T10:25:52;20.50;99.90
17813;DHT22;9030;50.792;8.320;2023-09-30T10:28:36;20.50;99.90
17813;DHT22;9030;50.792;8.320;2023-09-30T10:31:11;20.80;99.90
17813;DHT22;9030;50.792;8.320;2023-09-30T10:36:39;21.30;99.90
17813;DHT22;9030;50.792;8.320;2023-09-30T10:39:10;21.30;99.90
17813;DHT22;9030;50.792;8.320;2023-09-30T10:41:50;20.90;99.90
17813;DHT22;9030;50.792;8.320;2023-09-30T10:44:33;21.10;99.90
17813;DHT22;9030;50.792;8.320;2023-09-30T10:47:00;21.10;99.90
17813;DHT22;9030;50.792;8.320;2023-09-30T10:49:30;21.20;99.90
17813;DHT22;9030;50.792;8.320;2023-09-30T10:52:04;20.30;99.90
17813;DHT22;9030;50.792;8.320;2023-09-30T10:54:31;20.70;99.90
17813;DHT22;9030;50.792;8.320;2023-09-30T10:57:00;21.00;99.90
17813;DHT22;9030;50.792;8.320;2023-09-30T10:59:29;21.30;99.90
17813;DHT22;9030;50.792;8.320;2023-09-30T11:01:57;20.70;99.90
17813;DHT22;9030;50.792;8.320;2023-09-30T11:04:24;20.60;99.90
17813;DHT22;9030;50.792;8.320;2023-09-30T11:06:52;21.10;99.90
17813;DHT22;9030;50.792;8.320;2023-09-30T11:09:20;21.10;99.90
17813;DHT22;9030;50.792;8.320;2023-09-30T11:11:49;21.10;99.90
17813;DHT22;9030;50.792;8.320;2023-09-30T11:14:18;21.30;99.90
17813;DHT22;9030;50.792;8.320;2023-09-30T11:16:46;21.50;99.90
17813;DHT22;9030;50.792;8.320;2023-09-30T11:19:13;21.50;99.90
17813;DHT22;9030;50.792;8.320;2023-09-30T11:21:40;21.50;99.90
17813;DHT22;9030;50.792;8.320;2023-09-30T11:24:09;21.60;99.90
17813;DHT22;9030;50.792;8.320;2023-09-30T11:26:35;21.50;99.90
17813;DHT22;9030;50.792;8.320;2023-09-30T11:29:05;21.50;99.90
17813;DHT22;9030;50.792;8.320;2023-09-30T11:31:37;21.50;99.90
17813;DHT22;9030;50.792;8.320;2023-09-30T11:34:03;21.70;99.90
17813;DHT22;9030;50.792;8.320;2023-09-30T11:36:34;21.10;99.90
17813;DHT22;9030;50.792;8.320;2023-09-30T11:39:02;19.50;99.90
17813;DHT22;9030;50.792;8.320;2023-09-30T11:41:35;18.60;99.90
17813;DHT22;9030;50.792;8.320;2023-09-30T11:44:05;18.10;99.90
17813;DHT22;9030;50.792;8.320;2023-09-30T11:46:47;18.70;99.90
17813;DHT22;9030;50.792;8.320;2023-09-30T11:49:28;19.90;99.90
17813;DHT22;9030;50.792;8.320;2023-09-30T11:51:55;20.60;99.90
17813;DHT22;9030;50.792;8.320;2023-09-30T11:54:22;20.30;99.90
17813;DHT22;9030;50.792;8.320;2023-09-30T11:56:49;20.60;99.90
17813;DHT22;9030;50.792;8.320;2023-09-30T11:59:17;20.40;99.90
17813;DHT22;9030;50.792;8.320;2023-09-30T12:01:46;19.50;99.90
17813;DHT22;9030;50.792;8.320;2023-09-30T12:04:14;19.00;99.90
17813;DHT22;9030;50.792;8.320;2023-09-30T12:06:42;18.90;99.90
17813;DHT22;9030;50.792;8.320;2023-09-30T12:09:09;19.00;99.90
17813;DHT22;9030;50.792;8.320;2023-09-30T12:11:39;19.20;99.90
17813;DHT22;9030;50.792;8.320;2023-09-30T12:14:09;19.50;99.90
17813;DHT22;9030;50.792;8.320;2023-09-30T12:16:35;19.90;99.90
17813;DHT22;9030;50.792;8.320;2023-09-30T12:19:03;19.90;99.90
17813;DHT22;9030;50.792;8.320;2023-09-30T12:21:31;19.30;99.90
17813;DHT22;9030;50.792;8.320;2023-09-30T12:23:59;18.90;99.90
17813;DHT22;9030;50.792;8.320;2023-09-30T12:26:27;18.50;99.90
17813;DHT22;9030;50.792;8.320;2023-09-30T12:28:53;18.70;99.90
17813;DHT22;9030;50.792;8.320;2023-09-30T12:31:20;19.10;99.90
17813;DHT22;9030;50.792;8.320;2023-09-30T12:33:47;19.10;99.90
17813;DHT22;9030;50.792;8.320;2023-09-30T12:36:17;18.90;99.90
17813;DHT22;9030;50.792;8.320;2023-09-30T12:38:44;18.60;99.90
17813;DHT22;9030;50.792;8.320;2023-09-30T12:41:11;18.30;99.90
17813;DHT22;9030;50.792;8.320;2023-09-30T12:43:37;18.30;99.90
17813;DHT22;9030;50.792;8.320;2023-09-30T12:46:06;18.90;99.90
17813;DHT22;9030;50.792;8.320;2023-09-30T12:48:33;19.30;99.90
17813;DHT22;9030;50.792;8.320;2023-09-30T12:51:00;19.30;99.90
17813;DHT22;9030;50.792;8.320;2023-09-30T12:53:30;19.20;99.90
17813;DHT22;9030;50.792;8.320;2023-09-30T12:55:57;18.90;99.90
17813;DHT22;9030;50.792;8.320;2023-09-30T12:58:25;18.70;99.90
17813;DHT22;9030;50.792;8.320;2023-09-30T13:00:53;18.50;99.90
17813;DHT22;9030;50.792;8.320;2023-09-30T13:03:19;18.30;99.90
17813;DHT22;9030;50.792;8.320;2023-09-30T13:05:46;18.30;99.90
17813;DHT22;9030;50.792;8.320;2023-09-30T13:08:13;18.30;99.90
17813;DHT22;9030;50.792;8.320;2023-09-30T13:10:41;17.90;99.90
17813;DHT22;9030;50.792;8.320;2023-09-30T13:13:09;17.80;99.90
17813;DHT22;9030;50.792;8.320;2023-09-30T13:15:36;17.70;99.90
17813;DHT22;9030;50.792;8.320;2023-09-30T13:18:04;17.90;99.90
17813;DHT22;9030;50.792;8.320;2023-09-30T13:20:31;18.20;99.90
17813;DHT22;9030;50.792;8.320;2023-09-30T13:22:58;18.20;99.90
17813;DHT22;9030;50.792;8.320;2023-09-30T13:25:24;18.10;99.90
17813;DHT22;9030;50.792;8.320;2023-09-30T13:27:53;18.20;99.90
17813;DHT22;9030;50.792;8.320;2023-09-30T13:30:19;18.40;99.90
17813;DHT22;9030;50.792;8.320;2023-09-30T13:32:48;18.50;99.90
17813;DHT22;9030;50.792;8.320;2023-09-30T13:35:15;18.40;99.90
17813;DHT22;9030;50.792;8.320;2023-09-30T13:37:41;18.10;99.90
17813;DHT22;9030;50.792;8.320;2023-09-30T13:40:09;17.90;99.90
17813;DHT22;9030;50.792;8.320;2023-09-30T13:42:38;17.90;99.90
17813;DHT22;9030;50.792;8.320;2023-09-30T13:45:08;17.80;99.90
17813;DHT22;9030;50.792;8.320;2023-09-30T13:47:35;17.90;99.90
17813;DHT22;9030;50.792;8.320;2023-09-30T13:50:02;17.80;99.90
17813;DHT22;9030;50.792;8.320;2023-09-30T13:52:32;17.80;99.90
17813;DHT22;9030;50.792;8.320;2023-09-30T13:54:59;17.80;99.90
17813;DHT22;9030;50.792;8.320;2023-09-30T13:57:26;18.00;99.90
17813;DHT22;9030;50.792;8.320;2023-09-30T13:59:52;18.00;99.90
17813;DHT22;9030;50.792;8.320;2023-09-30T14:02:20;18.10;99.90
17813;DHT22;9030;50.792;8.320;2023-09-30T14:04:48;18.10;99.90
17813;DHT22;9030;50.792;8.320;2023-09-30T14:07:15;18.20;99.90
17813;DHT22;9030;50.792;8.320;2023-09-30T14:09:43;18.00;99.90
17813;DHT22;9030;50.792;8.320;2023-09-30T14:12:10;17.80;99.90
17813;DHT22;9030;50.792;8.320;2023-09-30T14:14:37;17.70;99.90
17813;DHT22;9030;50.792;8.320;2023-09-30T14:17:04;17.70;99.90
17813;DHT22;9030;50.792;8.320;2023-09-30T14:19:34;17.50;99.90
17813;DHT22;9030;50.792;8.320;2023-09-30T14:22:01;17.40;99.90
17813;DHT22;9030;50.792;8.320;2023-09-30T14:24:29;17.20;99.90
17813;DHT22;9030;50.792;8.320;2023-09-30T14:26:56;17.20;99.90
17813;DHT22;9030;50.792;8.320;2023-09-30T14:29:22;17.10;99.90
17813;DHT22;9030;50.792;8.320;2023-09-30T14:31:49;17.20;99.90
17813;DHT22;9030;50.792;8.320;2023-09-30T14:34:17;17.30;99.90
17813;DHT22;9030;50.792;8.320;2023-09-30T14:36:45;17.20;99.90
17813;DHT22;9030;50.792;8.320;2023-09-30T14:39:12;17.20;99.90
17813;DHT22;9030;50.792;8.320;2023-09-30T14:41:41;17.00;99.90
17813;DHT22;9030;50.792;8.320;2023-09-30T14:44:08;16.90;99.90
17813;DHT22;9030;50.792;8.320;2023-09-30T14:46:37;16.90;99.90
17813;DHT22;9030;50.792;8.320;2023-09-30T14:49:04;16.90;99.90
17813;DHT22;9030;50.792;8.320;2023-09-30T14:51:31;16.90;99.90
17813;DHT22;9030;50.792;8.320;2023-09-30T14:53:59;16.80;99.90
17813;DHT22;9030;50.792;8.320;2023-09-30T14:56:26;16.80;99.90
17813;DHT22;9030;50.792;8.320;2023-09-30T14:58:52;16.80;99.90
17813;DHT22;9030;50.792;8.320;2023-09-30T15:01:19;16.70;99.90
17813;DHT22;9030;50.792;8.320;2023-09-30T15:03:46;16.60;99.90
17813;DHT22;9030;50.792;8.320;2023-09-30T15:06:14;16.50;99.90
17813;DHT22;9030;50.792;8.320;2023-09-30T15:08:40;16.40;99.90
17813;DHT22;9030;50.792;8.320;2023-09-30T15:11:12;16.40;99.90
17813;DHT22;9030;50.792;8.320;2023-09-30T15:13:40;16.40;99.90
17813;DHT22;9030;50.792;8.320;2023-09-30T15:16:17;16.40;99.90
17813;DHT22;9030;50.792;8.320;2023-09-30T15:18:45;16.40;99.90
17813;DHT22;9030;50.792;8.320;2023-09-30T15:21:12;16.40;99.90
17813;DHT22;9030;50.792;8.320;2023-09-30T15:23:39;16.30;99.90
17813;DHT22;9030;50.792;8.320;2023-09-30T15:26:05;16.40;99.90
17813;DHT22;9030;50.792;8.320;2023-09-30T15:28:34;16.30;99.90
17813;DHT22;9030;50.792;8.320;2023-09-30T15:31:00;16.30;99.90
17813;DHT22;9030;50.792;8.320;2023-09-30T15:33:28;16.20;99.90
17813;DHT22;9030;50.792;8.320;2023-09-30T15:35:55;16.10;99.90
17813;DHT22;9030;50.792;8.320;2023-09-30T15:38:22;16.00;99.90
17813;DHT22;9030;50.792;8.320;2023-09-30T15:40:53;15.90;99.90
17813;DHT22;9030;50.792;8.320;2023-09-30T15:43:22;15.80;99.90
17813;DHT22;9030;50.792;8.320;2023-09-30T15:45:51;15.80;99.90
17813;DHT22;9030;50.792;8.320;2023-09-30T15:48:19;15.60;99.90
17813;DHT22;9030;50.792;8.320;2023-09-30T15:50:46;15.50;99.90
17813;DHT22;9030;50.792;8.320;2023-09-30T15:53:13;15.40;99.90
17813;DHT22;9030;50.792;8.320;2023-09-30T15:55:40;15.40;99.90
17813;DHT22;9030;50.792;8.320;2023-09-30T15:58:06;15.30;99.90